TimeWET,TemperatureF,Dew PointF,Humidity,Sea Level PressureIn,VisibilityMPH,Wind Direction,Wind SpeedMPH,Gust SpeedMPH,PrecipitationIn,Events,Conditions,WindDirDegrees,DateUTC
12:00 AM,70,48,34,29.88,6,East,4.6,,,,,80,2012-10-17 00:00:00
12:00 AM,69.8,48.2,46,29.92,-9999.0,ENE,4.6,-,N/A,,Clear,70,2012-10-17 00:00:00
1:30 AM,69.8,48.2,46,29.92,-9999.0,SSE,3.5,-,N/A,,Clear,150,2012-10-17 01:30:00
2:00 AM,69.8,48.2,46,29.92,-9999.0,SSE,3.5,-,N/A,,Clear,150,2012-10-17 02:00:00
2:30 AM,68.0,48.2,49,29.92,-9999.0,Variable,2.3,-,N/A,,Clear,0,2012-10-17 02:30:00
3:00 AM,68,47,36,29.85,6,SSE,1.2,,,,,160,2012-10-17 03:00:00
3:00 AM,68.0,48.2,49,29.89,-9999.0,Variable,1.2,-,N/A,,Clear,0,2012-10-17 03:00:00
3:30 AM,68.0,48.2,49,29.89,-9999.0,ESE,1.2,-,N/A,,Clear,110,2012-10-17 03:30:00
4:00 AM,66.2,46.4,49,29.89,-9999.0,West,3.5,-,N/A,,Clear,280,2012-10-17 04:00:00
4:30 AM,68.0,46.4,46,29.89,-9999.0,Variable,1.2,-,N/A,,Clear,0,2012-10-17 04:30:00
5:00 AM,66.2,48.2,52,29.89,-9999.0,East,3.5,-,N/A,,Clear,90,2012-10-17 05:00:00
5:30 AM,66.2,48.2,52,29.89,-9999.0,Variable,2.3,-,N/A,,Clear,0,2012-10-17 05:30:00
6:00 AM,67,48,39,29.85,6,ESE,4.6,,,,,120,2012-10-17 06:00:00
6:00 AM,66.2,48.2,52,29.89,-9999.0,ESE,4.6,-,N/A,,Clear,120,2012-10-17 06:00:00
6:30 AM,66.2,48.2,52,29.89,-9999.0,ESE,3.5,-,N/A,,Clear,110,2012-10-17 06:30:00
7:00 AM,66.2,48.2,52,29.89,-9999.0,SE,1.2,-,N/A,,Clear,140,2012-10-17 07:00:00
7:30 AM,66.2,48.2,52,29.89,-9999.0,Calm,Calm,-,N/A,,Clear,0,2012-10-17 07:30:00
8:00 AM,68.0,50.0,52,29.89,5.6,NE,3.5,-,N/A,,Unknown,50,2012-10-17 08:00:00
8:30 AM,69.8,50.0,49,29.92,3.7,East,3.5,-,N/A,,Unknown,80,2012-10-17 08:30:00
9:00 AM,73.4,50.0,44,29.92,3.1,Variable,2.3,-,N/A,,Unknown,0,2012-10-17 09:00:00
9:15 AM,74,51,34,29.86,3,WNW,3.5,,,,Clear,290,2012-10-17 09:15:00
9:30 AM,73.4,51.8,47,29.92,3.1,WNW,3.5,-,N/A,,Unknown,290,2012-10-17 09:30:00
10:00 AM,75.2,50.0,41,29.92,-9999.0,West,5.8,-,N/A,,Clear,280,2012-10-17 10:00:00
10:30 AM,77.0,48.2,36,29.92,-9999.0,WNW,5.8,-,N/A,,Clear,290,2012-10-17 10:30:00
11:00 AM,78.8,50.0,36,29.92,-9999.0,West,9.2,-,N/A,,Clear,280,2012-10-17 11:00:00
11:30 AM,78.8,48.2,34,29.92,-9999.0,West,9.2,-,N/A,,Clear,280,2012-10-17 11:30:00
12:00 PM,80,47,22,29.83,6,West,9.2,,,,Clear,280,2012-10-17 12:00:00
12:00 PM,80.6,50.0,34,29.92,-9999.0,West,9.2,-,N/A,,Clear,280,2012-10-17 12:00:00
12:30 PM,80.6,48.2,32,29.89,-9999.0,West,9.2,-,N/A,,Clear,270,2012-10-17 12:30:00
1:00 PM,82.4,48.2,30,29.89,6.2,West,10.4,-,N/A,,Mostly Cloudy,280,2012-10-17 13:00:00
1:30 PM,82.4,48.2,30,29.86,6.2,WNW,8.1,-,N/A,,Mostly Cloudy,290,2012-10-17 13:30:00
2:00 PM,84.2,46.4,27,29.86,6.2,West,8.1,-,N/A,,Mostly Cloudy,260,2012-10-17 14:00:00
2:30 PM,84.2,48.2,29,29.86,6.2,West,8.1,-,N/A,,Mostly Cloudy,270,2012-10-17 14:30:00
3:00 PM,85,47,17,29.76,6,WSW,9.2,,,,Scattered Clouds,250,2012-10-17 15:00:00
3:00 PM,86.0,48.2,27,29.86,6.2,WSW,9.2,-,N/A,,Mostly Cloudy,250,2012-10-17 15:00:00
3:30 PM,84.2,48.2,29,29.86,6.2,West,9.2,-,N/A,,Mostly Cloudy,260,2012-10-17 15:30:00
4:00 PM,84.2,46.4,27,29.86,6.2,West,9.2,-,N/A,,Mostly Cloudy,270,2012-10-17 16:00:00
4:30 PM,84.2,48.2,29,29.86,6.2,WSW,11.5,-,N/A,,Mostly Cloudy,250,2012-10-17 16:30:00
5:00 PM,84.2,48.2,29,29.86,6.2,WSW,12.7,-,N/A,,Mostly Cloudy,250,2012-10-17 17:00:00
5:30 PM,82.4,48.2,30,29.86,6.2,WSW,10.4,-,N/A,,Mostly Cloudy,250,2012-10-17 17:30:00
6:00 PM,80,49,23,29.78,6,WSW,8.1,,,,Scattered Clouds,250,2012-10-17 18:00:00
6:00 PM,80.6,48.2,32,29.86,6.2,WSW,8.1,-,N/A,,Mostly Cloudy,250,2012-10-17 18:00:00
6:30 PM,77.0,51.8,41,29.86,6.2,West,8.1,-,N/A,,Mostly Cloudy,270,2012-10-17 18:30:00
7:00 PM,75.2,53.6,47,29.86,6.2,WSW,5.8,-,N/A,,Mostly Cloudy,250,2012-10-17 19:00:00
7:30 PM,75.2,53.6,47,29.86,6.2,West,10.4,-,N/A,,Mostly Cloudy,260,2012-10-17 19:30:00
8:00 PM,73.4,55.4,53,29.86,6.2,WSW,8.1,-,N/A,,Mostly Cloudy,250,2012-10-17 20:00:00
8:30 PM,73.4,57.2,57,29.89,6.2,West,9.2,-,N/A,,Mostly Cloudy,260,2012-10-17 20:30:00
9:00 PM,72,58,52,29.83,6,WSW,6.9,,,,Scattered Clouds,250,2012-10-17 21:00:00
9:00 PM,71.6,57.2,60,29.89,6.2,WSW,5.8,-,N/A,,Mostly Cloudy,250,2012-10-17 21:00:00
9:30 PM,69.8,59.0,68,29.89,6.2,WSW,5.8,-,N/A,,Mostly Cloudy,250,2012-10-17 21:30:00
10:00 PM,69.8,59.0,68,29.89,6.2,WSW,8.1,-,N/A,,Mostly Cloudy,250,2012-10-17 22:00:00
10:30 PM,68.0,57.2,68,29.89,6.2,WSW,9.2,-,N/A,,Scattered Clouds,240,2012-10-17 22:30:00
11:00 PM,66.2,57.2,73,29.89,6.2,WSW,9.2,-,N/A,,Scattered Clouds,250,2012-10-17 23:00:00
11:30 PM,66.2,59.0,78,29.89,6.2,WSW,8.1,-,N/A,,Scattered Clouds,240,2012-10-17 23:30:00